Flight Track Log - Related Links

Times and Time Zones

All times are in EDT time to prevent confusion due to time zone crossing. See the SWA305 flight status page for this flight to view local times or setup timezone preferences in your user account.

Time Position Orientation Groundspeed Altitude Reporting Facility
EDT Latitude Longitude Course Direction KTS MPH feet Rate Location/Type
Sun 07:42:51 PM 30.2000 -97.4492 65° Northeast 288 331 10,500  Level Houston Center
Sun 07:43:53 PM 30.2414 -97.3511 64° Northeast 335 386 12,100 2,226 Climbing Houston Center
Sun 07:44:55 PM 30.2872 -97.2375 65° Northeast 381 438 15,100 3,000 Climbing Houston Center
Sun 07:45:00 PM 30.3650 -97.3051 99° East  Level FlightAware
Sun 07:45:57 PM 30.3347 -97.1222 64° Northeast 393 452 18,300  Level Houston Center
Sun 07:46:00 PM 30.3517 -97.2117 99° East  Level FlightAware
Sun 07:46:58 PM 30.3458 -96.9978 84° East 398 458 21,100  Level Houston Center
Sun 07:47:00 PM 30.3500 -97.1172 90° East  Level FlightAware
Sun 07:48:00 PM 30.3364 -96.8622 95° East 418 481 22,900  Level Houston Center
Sun 07:49:02 PM 30.3125 -96.7239 101° East 434 499 21,200 -2,274 Descending Houston Center
Sun 07:50:04 PM 30.2806 -96.5672 103° East 425 489 18,200 -2,758 Descending Houston Center
Sun 07:51:06 PM 30.2533 -96.4386 104° East 410 472 15,500 -2,596 Descending Houston Center
Sun 07:51:48 PM 30.2347 -96.3500 104° East 406 467 13,700 -2,516 Descending Houston Center
Sun 07:52:08 PM 30.2281 -96.3139 102° East 398 458 12,900 -2,219 Descending Houston Center
Sun 07:53:01 PM 30.1953 -96.2069 110° East 375 432 11,000 -968 Descending Houston Center
Sun 07:54:12 PM 30.1050 -96.1522 152° Southeast 353 406 10,900 -45 Descending Houston Center
Sun 07:55:14 PM 30.0489 -96.0725 129° Southeast 315 362 10,900 -341 Level Houston Center
Sun 07:56:15 PM 29.9967 -95.9797 123° Southeast 299 344 10,200 -927 Descending Houston Center
Sun 07:57:17 PM 29.9517 -95.9003 123° Southeast 297 342 9,000 -712 Descending Houston Center
Sun 07:58:13 PM 29.9006 -95.8328 131° Southeast 288 331 8,800 -976 Descending Houston Center
Sun 07:59:20 PM 29.8297 -95.7664 141° Southeast 288 331 7,000 -1,313 Descending Houston Center
Sun 08:00:21 PM 29.8050 -95.6778 108° East 277 319 6,000 -864 Descending Houston Center
Sun 08:01:25 PM 29.7847 -95.6058 108° East 277 319 5,200 -672 Descending Houston Center
Sun 08:02:17 PM 29.7617 -95.5217 107° East 243 280 4,700 -956 Descending Houston Center
Sun 08:03:18 PM 29.7406 -95.4497 109° East 227 261 3,400 -1,266 Descending Houston Center
Sun 08:04:25 PM 29.7189 -95.3753 109° East 212 244 2,000 -1,023 Descending Houston Center
Sun 08:05:27 PM 29.6897 -95.3331 128° Southeast 147 169 1,200 -732 Descending Houston Center
Sun 08:06:28 PM 29.6639 -95.3025 134° Southeast 127 146 500 -689 Descending Houston Center
Sun 08:09:00 PM 29.6454 -95.2789 125° Southeast  Level Estimated

Login

Don't have an account? Register now (free) for customized features, flight alerts, and more!